sensor_id;sensor_type;location;lat;lon;timestamp;temperature;humidity
48686;DHT22;34485;51.536;3.816;2023-02-19T00:01:09;9.80;99.90
48686;DHT22;34485;51.536;3.816;2023-02-19T00:03:36;9.80;99.90
48686;DHT22;34485;51.536;3.816;2023-02-19T00:06:03;9.80;99.90
48686;DHT22;34485;51.536;3.816;2023-02-19T00:08:30;9.80;99.90
48686;DHT22;34485;51.536;3.816;2023-02-19T00:11:05;9.80;99.90
48686;DHT22;34485;51.536;3.816;2023-02-19T00:13:35;9.80;99.90
48686;DHT22;34485;51.536;3.816;2023-02-19T00:16:26;9.80;99.90
48686;DHT22;34485;51.536;3.816;2023-02-19T00:18:51;9.80;99.90
48686;DHT22;34485;51.536;3.816;2023-02-19T00:21:17;9.80;99.90
48686;DHT22;34485;51.536;3.816;2023-02-19T00:23:47;9.80;99.90
48686;DHT22;34485;51.536;3.816;2023-02-19T00:26:12;9.80;99.90
48686;DHT22;34485;51.536;3.816;2023-02-19T00:28:38;9.80;99.90
48686;DHT22;34485;51.536;3.816;2023-02-19T00:31:06;9.80;99.90
48686;DHT22;34485;51.536;3.816;2023-02-19T00:33:32;9.80;99.90
48686;DHT22;34485;51.536;3.816;2023-02-19T00:36:02;9.80;99.90
48686;DHT22;34485;51.536;3.816;2023-02-19T00:38:29;9.80;99.90
48686;DHT22;34485;51.536;3.816;2023-02-19T00:40:54;9.80;99.90
48686;DHT22;34485;51.536;3.816;2023-02-19T00:43:20;9.80;99.90
48686;DHT22;34485;51.536;3.816;2023-02-19T00:45:46;9.80;99.90
48686;DHT22;34485;51.536;3.816;2023-02-19T00:48:11;9.80;99.90
48686;DHT22;34485;51.536;3.816;2023-02-19T00:50:37;9.80;99.90
48686;DHT22;34485;51.536;3.816;2023-02-19T00:53:02;9.80;99.90
48686;DHT22;34485;51.536;3.816;2023-02-19T00:55:28;9.80;99.90
48686;DHT22;34485;51.536;3.816;2023-02-19T00:57:53;9.70;99.90
48686;DHT22;34485;51.536;3.816;2023-02-19T01:00:19;9.70;99.90
48686;DHT22;34485;51.536;3.816;2023-02-19T01:02:45;9.70;99.90
48686;DHT22;34485;51.536;3.816;2023-02-19T01:05:10;9.70;99.90
48686;DHT22;34485;51.536;3.816;2023-02-19T01:07:36;9.70;99.90
48686;DHT22;34485;51.536;3.816;2023-02-19T01:10:03;9.70;99.90
48686;DHT22;34485;51.536;3.816;2023-02-19T01:12:29;9.70;99.90
48686;DHT22;34485;51.536;3.816;2023-02-19T01:14:56;9.70;99.90
48686;DHT22;34485;51.536;3.816;2023-02-19T01:17:21;9.60;99.90
48686;DHT22;34485;51.536;3.816;2023-02-19T01:19:47;9.60;99.90
48686;DHT22;34485;51.536;3.816;2023-02-19T01:22:13;9.60;99.90
48686;DHT22;34485;51.536;3.816;2023-02-19T01:24:38;9.60;99.90
48686;DHT22;34485;51.536;3.816;2023-02-19T01:27:04;9.60;99.90
48686;DHT22;34485;51.536;3.816;2023-02-19T01:29:29;9.60;99.90
48686;DHT22;34485;51.536;3.816;2023-02-19T01:31:55;9.60;99.90
48686;DHT22;34485;51.536;3.816;2023-02-19T01:34:21;9.60;99.90
48686;DHT22;34485;51.536;3.816;2023-02-19T01:36:46;9.60;99.90
48686;DHT22;34485;51.536;3.816;2023-02-19T01:39:12;9.60;99.90
48686;DHT22;34485;51.536;3.816;2023-02-19T01:41:39;9.50;99.90
48686;DHT22;34485;51.536;3.816;2023-02-19T01:46:40;9.50;99.90
48686;DHT22;34485;51.536;3.816;2023-02-19T01:51:45;9.50;99.90
48686;DHT22;34485;51.536;3.816;2023-02-19T01:54:15;9.60;99.90
48686;DHT22;34485;51.536;3.816;2023-02-19T01:56:42;9.50;99.90
48686;DHT22;34485;51.536;3.816;2023-02-19T01:59:08;9.60;99.90
48686;DHT22;34485;51.536;3.816;2023-02-19T02:01:36;9.60;99.90
48686;DHT22;34485;51.536;3.816;2023-02-19T02:04:03;9.60;99.90
48686;DHT22;34485;51.536;3.816;2023-02-19T02:06:40;9.60;99.90
48686;DHT22;34485;51.536;3.816;2023-02-19T02:09:07;9.60;99.90
48686;DHT22;34485;51.536;3.816;2023-02-19T02:11:52;9.60;99.90
48686;DHT22;34485;51.536;3.816;2023-02-19T02:14:20;9.60;99.90
48686;DHT22;34485;51.536;3.816;2023-02-19T02:17:19;9.60;99.90
48686;DHT22;34485;51.536;3.816;2023-02-19T02:22:48;9.70;99.90
48686;DHT22;34485;51.536;3.816;2023-02-19T02:30:54;9.70;99.90
48686;DHT22;34485;51.536;3.816;2023-02-19T02:33:37;9.70;99.90
48686;DHT22;34485;51.536;3.816;2023-02-19T02:36:33;9.70;99.90
48686;DHT22;34485;51.536;3.816;2023-02-19T02:39:02;9.80;99.90
48686;DHT22;34485;51.536;3.816;2023-02-19T02:41:31;9.80;99.90
48686;DHT22;34485;51.536;3.816;2023-02-19T02:43:57;9.80;99.90
48686;DHT22;34485;51.536;3.816;2023-02-19T02:46:35;9.80;99.90
48686;DHT22;34485;51.536;3.816;2023-02-19T02:49:04;9.70;99.90
48686;DHT22;34485;51.536;3.816;2023-02-19T02:51:43;9.70;99.90
48686;DHT22;34485;51.536;3.816;2023-02-19T02:54:22;9.80;99.90
48686;DHT22;34485;51.536;3.816;2023-02-19T02:57:08;9.80;99.90
48686;DHT22;34485;51.536;3.816;2023-02-19T02:59:40;9.80;99.90
48686;DHT22;34485;51.536;3.816;2023-02-19T03:04:56;9.80;99.90
48686;DHT22;34485;51.536;3.816;2023-02-19T03:08:03;9.80;99.90
48686;DHT22;34485;51.536;3.816;2023-02-19T03:11:01;9.80;99.90
48686;DHT22;34485;51.536;3.816;2023-02-19T03:13:51;9.80;99.90
48686;DHT22;34485;51.536;3.816;2023-02-19T03:16:37;9.80;99.90
48686;DHT22;34485;51.536;3.816;2023-02-19T03:19:24;9.80;99.90
48686;DHT22;34485;51.536;3.816;2023-02-19T03:21:59;9.80;99.90
48686;DHT22;34485;51.536;3.816;2023-02-19T03:24:33;9.80;99.90
48686;DHT22;34485;51.536;3.816;2023-02-19T03:27:19;9.80;99.90
48686;DHT22;34485;51.536;3.816;2023-02-19T03:29:48;9.80;99.90
48686;DHT22;34485;51.536;3.816;2023-02-19T03:32:17;9.80;99.90
48686;DHT22;34485;51.536;3.816;2023-02-19T03:34:55;9.80;99.90
48686;DHT22;34485;51.536;3.816;2023-02-19T03:37:27;9.80;99.90
48686;DHT22;34485;51.536;3.816;2023-02-19T03:39:54;9.80;99.90
48686;DHT22;34485;51.536;3.816;2023-02-19T03:42:23;9.80;99.90
48686;DHT22;34485;51.536;3.816;2023-02-19T03:56:29;9.80;99.90
48686;DHT22;34485;51.536;3.816;2023-02-19T03:59:01;9.80;99.90
48686;DHT22;34485;51.536;3.816;2023-02-19T04:01:53;9.80;99.90
48686;DHT22;34485;51.536;3.816;2023-02-19T04:04:48;9.80;99.90
48686;DHT22;34485;51.536;3.816;2023-02-19T04:07:15;9.80;99.90
48686;DHT22;34485;51.536;3.816;2023-02-19T04:09:46;9.80;99.90
48686;DHT22;34485;51.536;3.816;2023-02-19T04:12:13;9.70;99.90
48686;DHT22;34485;51.536;3.816;2023-02-19T04:14:48;9.70;99.90
48686;DHT22;34485;51.536;3.816;2023-02-19T04:17:27;9.80;99.90
48686;DHT22;34485;51.536;3.816;2023-02-19T04:19:56;9.80;99.90
48686;DHT22;34485;51.536;3.816;2023-02-19T04:22:23;9.70;99.90
48686;DHT22;34485;51.536;3.816;2023-02-19T04:24:51;9.70;99.90
48686;DHT22;34485;51.536;3.816;2023-02-19T04:27:18;9.70;99.90
48686;DHT22;34485;51.536;3.816;2023-02-19T04:29:43;9.70;99.90
48686;DHT22;34485;51.536;3.816;2023-02-19T04:32:10;9.80;99.90
48686;DHT22;34485;51.536;3.816;2023-02-19T04:34:36;9.70;99.90
48686;DHT22;34485;51.536;3.816;2023-02-19T04:37:02;9.70;99.90
48686;DHT22;34485;51.536;3.816;2023-02-19T04:39:28;9.70;99.90
48686;DHT22;34485;51.536;3.816;2023-02-19T04:41:53;9.70;99.90
48686;DHT22;34485;51.536;3.816;2023-02-19T04:44:19;9.70;99.90
48686;DHT22;34485;51.536;3.816;2023-02-19T04:46:45;9.70;99.90
48686;DHT22;34485;51.536;3.816;2023-02-19T04:49:11;9.70;99.90
48686;DHT22;34485;51.536;3.816;2023-02-19T04:51:37;9.70;99.90
48686;DHT22;34485;51.536;3.816;2023-02-19T04:54:03;9.70;99.90
48686;DHT22;34485;51.536;3.816;2023-02-19T04:56:29;9.60;99.90
48686;DHT22;34485;51.536;3.816;2023-02-19T05:01:23;9.70;99.90
48686;DHT22;34485;51.536;3.816;2023-02-19T05:03:49;9.60;99.90
48686;DHT22;34485;51.536;3.816;2023-02-19T05:06:15;9.70;99.90
48686;DHT22;34485;51.536;3.816;2023-02-19T05:08:41;9.60;99.90
48686;DHT22;34485;51.536;3.816;2023-02-19T05:11:08;9.70;99.90
48686;DHT22;34485;51.536;3.816;2023-02-19T05:13:35;9.70;99.90
48686;DHT22;34485;51.536;3.816;2023-02-19T05:16:03;9.70;99.90
48686;DHT22;34485;51.536;3.816;2023-02-19T05:18:29;9.70;99.90
48686;DHT22;34485;51.536;3.816;2023-02-19T05:20:56;9.80;99.90
48686;DHT22;34485;51.536;3.816;2023-02-19T05:23:23;9.70;99.90
48686;DHT22;34485;51.536;3.816;2023-02-19T05:25:48;9.70;99.90
48686;DHT22;34485;51.536;3.816;2023-02-19T05:28:14;9.70;99.90
48686;DHT22;34485;51.536;3.816;2023-02-19T05:30:50;9.70;99.90
48686;DHT22;34485;51.536;3.816;2023-02-19T05:33:18;9.70;99.90
48686;DHT22;34485;51.536;3.816;2023-02-19T05:35:49;9.70;99.90
48686;DHT22;34485;51.536;3.816;2023-02-19T05:38:16;9.70;99.90
48686;DHT22;34485;51.536;3.816;2023-02-19T05:40:42;9.70;99.90
48686;DHT22;34485;51.536;3.816;2023-02-19T05:43:08;9.70;99.90
48686;DHT22;34485;51.536;3.816;2023-02-19T05:45:34;9.70;99.90
48686;DHT22;34485;51.536;3.816;2023-02-19T05:48:01;9.70;99.90
48686;DHT22;34485;51.536;3.816;2023-02-19T05:50:28;9.70;99.90
48686;DHT22;34485;51.536;3.816;2023-02-19T05:52:53;9.70;99.90
48686;DHT22;34485;51.536;3.816;2023-02-19T05:55:19;9.70;99.90
48686;DHT22;34485;51.536;3.816;2023-02-19T05:57:47;9.70;99.90
48686;DHT22;34485;51.536;3.816;2023-02-19T06:00:15;9.60;99.90
48686;DHT22;34485;51.536;3.816;2023-02-19T06:02:41;9.60;99.90
48686;DHT22;34485;51.536;3.816;2023-02-19T06:05:07;9.60;99.90
48686;DHT22;34485;51.536;3.816;2023-02-19T06:07:33;9.60;99.90
48686;DHT22;34485;51.536;3.816;2023-02-19T06:09:59;9.60;99.90
48686;DHT22;34485;51.536;3.816;2023-02-19T06:12:24;9.60;99.90
48686;DHT22;34485;51.536;3.816;2023-02-19T06:14:50;9.60;99.90
48686;DHT22;34485;51.536;3.816;2023-02-19T06:17:16;9.50;99.90
48686;DHT22;34485;51.536;3.816;2023-02-19T06:19:42;9.60;99.90
48686;DHT22;34485;51.536;3.816;2023-02-19T06:22:07;9.60;99.90
48686;DHT22;34485;51.536;3.816;2023-02-19T06:24:33;9.60;99.90
48686;DHT22;34485;51.536;3.816;2023-02-19T06:27:00;9.60;99.90
48686;DHT22;34485;51.536;3.816;2023-02-19T06:29:26;9.60;99.90
48686;DHT22;34485;51.536;3.816;2023-02-19T06:31:51;9.60;99.90
48686;DHT22;34485;51.536;3.816;2023-02-19T06:34:17;9.60;99.90
48686;DHT22;34485;51.536;3.816;2023-02-19T06:36:42;9.60;99.90
48686;DHT22;34485;51.536;3.816;2023-02-19T06:39:09;9.60;99.90
48686;DHT22;34485;51.536;3.816;2023-02-19T06:41:34;9.50;99.90
48686;DHT22;34485;51.536;3.816;2023-02-19T06:44:00;9.50;99.90
48686;DHT22;34485;51.536;3.816;2023-02-19T06:46:26;9.50;99.90
48686;DHT22;34485;51.536;3.816;2023-02-19T06:51:19;9.60;99.90
48686;DHT22;34485;51.536;3.816;2023-02-19T06:53:50;9.60;99.90
48686;DHT22;34485;51.536;3.816;2023-02-19T06:56:26;9.60;99.90
48686;DHT22;34485;51.536;3.816;2023-02-19T06:58:54;9.50;99.90
48686;DHT22;34485;51.536;3.816;2023-02-19T07:01:20;9.60;99.90
48686;DHT22;34485;51.536;3.816;2023-02-19T07:03:46;9.50;99.90
48686;DHT22;34485;51.536;3.816;2023-02-19T07:06:12;9.50;99.90
48686;DHT22;34485;51.536;3.816;2023-02-19T07:08:37;9.50;99.90
48686;DHT22;34485;51.536;3.816;2023-02-19T07:11:03;9.50;99.90
48686;DHT22;34485;51.536;3.816;2023-02-19T07:13:29;9.50;99.90
48686;DHT22;34485;51.536;3.816;2023-02-19T07:16:04;9.50;99.90
48686;DHT22;34485;51.536;3.816;2023-02-19T07:18:30;9.60;99.90
48686;DHT22;34485;51.536;3.816;2023-02-19T07:21:07;9.60;99.90
48686;DHT22;34485;51.536;3.816;2023-02-19T07:23:33;9.50;99.90
48686;DHT22;34485;51.536;3.816;2023-02-19T07:25:59;9.50;99.90
48686;DHT22;34485;51.536;3.816;2023-02-19T07:28:25;9.50;99.90
48686;DHT22;34485;51.536;3.816;2023-02-19T07:30:50;9.50;99.90
48686;DHT22;34485;51.536;3.816;2023-02-19T07:33:16;9.50;99.90
48686;DHT22;34485;51.536;3.816;2023-02-19T07:35:51;9.40;99.90
48686;DHT22;34485;51.536;3.816;2023-02-19T07:38:21;9.40;99.90
48686;DHT22;34485;51.536;3.816;2023-02-19T07:43:20;9.40;99.90
48686;DHT22;34485;51.536;3.816;2023-02-19T07:45:46;9.40;99.90
48686;DHT22;34485;51.536;3.816;2023-02-19T07:48:11;9.40;99.90
48686;DHT22;34485;51.536;3.816;2023-02-19T07:50:37;9.50;99.90
48686;DHT22;34485;51.536;3.816;2023-02-19T07:53:03;9.60;99.90
48686;DHT22;34485;51.536;3.816;2023-02-19T07:55:30;9.70;99.90
48686;DHT22;34485;51.536;3.816;2023-02-19T07:57:57;9.80;99.90
48686;DHT22;34485;51.536;3.816;2023-02-19T08:00:23;9.80;99.90
48686;DHT22;34485;51.536;3.816;2023-02-19T08:02:50;9.80;99.90
48686;DHT22;34485;51.536;3.816;2023-02-19T08:05:30;9.80;99.90
48686;DHT22;34485;51.536;3.816;2023-02-19T08:07:57;9.80;99.90
48686;DHT22;34485;51.536;3.816;2023-02-19T08:10:23;9.90;99.90
48686;DHT22;34485;51.536;3.816;2023-02-19T08:13:15;9.90;99.90
48686;DHT22;34485;51.536;3.816;2023-02-19T08:15:45;9.90;99.90
48686;DHT22;34485;51.536;3.816;2023-02-19T08:18:12;9.90;99.90
48686;DHT22;34485;51.536;3.816;2023-02-19T08:20:38;10.00;99.90
48686;DHT22;34485;51.536;3.816;2023-02-19T08:23:04;10.00;99.90
48686;DHT22;34485;51.536;3.816;2023-02-19T08:25:30;10.10;99.90
48686;DHT22;34485;51.536;3.816;2023-02-19T08:27:55;10.10;99.90
48686;DHT22;34485;51.536;3.816;2023-02-19T08:30:21;10.10;99.90
48686;DHT22;34485;51.536;3.816;2023-02-19T08:32:47;10.10;99.90
48686;DHT22;34485;51.536;3.816;2023-02-19T08:35:13;10.20;99.90
48686;DHT22;34485;51.536;3.816;2023-02-19T08:37:38;10.10;99.90
48686;DHT22;34485;51.536;3.816;2023-02-19T08:40:04;10.20;99.90
48686;DHT22;34485;51.536;3.816;2023-02-19T08:42:30;10.30;99.90
48686;DHT22;34485;51.536;3.816;2023-02-19T08:44:55;10.30;99.90
48686;DHT22;34485;51.536;3.816;2023-02-19T08:47:21;10.30;99.90
48686;DHT22;34485;51.536;3.816;2023-02-19T08:49:47;10.30;99.90
48686;DHT22;34485;51.536;3.816;2023-02-19T08:52:15;10.40;99.90
48686;DHT22;34485;51.536;3.816;2023-02-19T08:54:41;10.40;99.90
48686;DHT22;34485;51.536;3.816;2023-02-19T08:57:06;10.40;99.90
48686;DHT22;34485;51.536;3.816;2023-02-19T08:59:32;10.50;99.90
48686;DHT22;34485;51.536;3.816;2023-02-19T09:01:58;10.50;99.90
48686;DHT22;34485;51.536;3.816;2023-02-19T09:04:23;10.50;99.90
48686;DHT22;34485;51.536;3.816;2023-02-19T09:06:49;10.60;99.90
48686;DHT22;34485;51.536;3.816;2023-02-19T09:09:15;10.70;99.90
48686;DHT22;34485;51.536;3.816;2023-02-19T09:11:41;10.60;99.90
48686;DHT22;34485;51.536;3.816;2023-02-19T09:14:07;10.60;99.90
48686;DHT22;34485;51.536;3.816;2023-02-19T09:16:34;10.70;99.90
48686;DHT22;34485;51.536;3.816;2023-02-19T09:19:00;10.60;99.90
48686;DHT22;34485;51.536;3.816;2023-02-19T09:21:25;10.70;99.90
48686;DHT22;34485;51.536;3.816;2023-02-19T09:23:52;10.70;99.90
48686;DHT22;34485;51.536;3.816;2023-02-19T09:26:18;10.70;99.90
48686;DHT22;34485;51.536;3.816;2023-02-19T09:28:44;10.70;99.90
48686;DHT22;34485;51.536;3.816;2023-02-19T09:31:12;10.70;99.90
48686;DHT22;34485;51.536;3.816;2023-02-19T09:33:45;10.70;99.90
48686;DHT22;34485;51.536;3.816;2023-02-19T09:38:37;10.90;99.90
48686;DHT22;34485;51.536;3.816;2023-02-19T09:41:11;10.90;99.90
48686;DHT22;34485;51.536;3.816;2023-02-19T09:43:38;10.90;99.90
48686;DHT22;34485;51.536;3.816;2023-02-19T09:46:23;10.90;99.90
48686;DHT22;34485;51.536;3.816;2023-02-19T09:48:53;10.90;99.90
48686;DHT22;34485;51.536;3.816;2023-02-19T09:51:21;10.80;99.90
48686;DHT22;34485;51.536;3.816;2023-02-19T09:53:48;10.70;99.90
48686;DHT22;34485;51.536;3.816;2023-02-19T09:56:15;10.70;99.90
48686;DHT22;34485;51.536;3.816;2023-02-19T09:58:53;10.70;99.90
48686;DHT22;34485;51.536;3.816;2023-02-19T10:01:20;10.70;99.90
48686;DHT22;34485;51.536;3.816;2023-02-19T10:03:50;10.80;99.90
48686;DHT22;34485;51.536;3.816;2023-02-19T10:06:19;10.80;99.90
48686;DHT22;34485;51.536;3.816;2023-02-19T10:12:15;10.70;99.90
48686;DHT22;34485;51.536;3.816;2023-02-19T10:14:48;10.70;99.90
48686;DHT22;34485;51.536;3.816;2023-02-19T10:17:23;10.70;99.90
48686;DHT22;34485;51.536;3.816;2023-02-19T10:19:50;10.80;99.90
48686;DHT22;34485;51.536;3.816;2023-02-19T10:22:16;10.80;99.90
48686;DHT22;34485;51.536;3.816;2023-02-19T10:24:42;10.70;99.90
48686;DHT22;34485;51.536;3.816;2023-02-19T10:27:14;10.70;99.90
48686;DHT22;34485;51.536;3.816;2023-02-19T10:29:42;10.80;99.90
48686;DHT22;34485;51.536;3.816;2023-02-19T10:32:19;10.70;99.90
48686;DHT22;34485;51.536;3.816;2023-02-19T10:34:46;10.80;99.90
48686;DHT22;34485;51.536;3.816;2023-02-19T10:37:15;10.70;99.90
48686;DHT22;34485;51.536;3.816;2023-02-19T10:39:46;10.80;99.90
48686;DHT22;34485;51.536;3.816;2023-02-19T10:42:21;10.80;99.90
48686;DHT22;34485;51.536;3.816;2023-02-19T10:44:57;11.00;99.90
48686;DHT22;34485;51.536;3.816;2023-02-19T10:47:27;11.30;99.90
48686;DHT22;34485;51.536;3.816;2023-02-19T10:49:56;11.30;99.90
48686;DHT22;34485;51.536;3.816;2023-02-19T10:52:28;11.60;99.90
48686;DHT22;34485;51.536;3.816;2023-02-19T10:54:57;11.70;99.90
48686;DHT22;34485;51.536;3.816;2023-02-19T10:57:37;11.70;99.90
48686;DHT22;34485;51.536;3.816;2023-02-19T11:02:42;11.20;99.90
48686;DHT22;34485;51.536;3.816;2023-02-19T11:07:42;11.30;99.90
48686;DHT22;34485;51.536;3.816;2023-02-19T11:12:49;12.00;99.90
48686;DHT22;34485;51.536;3.816;2023-02-19T11:15:21;12.00;99.90
48686;DHT22;34485;51.536;3.816;2023-02-19T11:17:56;12.00;99.90
48686;DHT22;34485;51.536;3.816;2023-02-19T11:20:23;11.60;99.90
48686;DHT22;34485;51.536;3.816;2023-02-19T11:22:49;11.60;99.90
48686;DHT22;34485;51.536;3.816;2023-02-19T11:27:56;11.80;99.90
48686;DHT22;34485;51.536;3.816;2023-02-19T11:30:32;11.90;99.90
48686;DHT22;34485;51.536;3.816;2023-02-19T11:35:50;12.00;99.90
48686;DHT22;34485;51.536;3.816;2023-02-19T11:38:18;12.20;99.90
48686;DHT22;34485;51.536;3.816;2023-02-19T11:41:09;12.10;99.90
48686;DHT22;34485;51.536;3.816;2023-02-19T11:43:41;12.20;99.90
48686;DHT22;34485;51.536;3.816;2023-02-19T11:49:01;11.40;99.90
48686;DHT22;34485;51.536;3.816;2023-02-19T12:03:09;11.30;99.90
48686;DHT22;34485;51.536;3.816;2023-02-19T12:05:48;11.40;99.90
48686;DHT22;34485;51.536;3.816;2023-02-19T12:08:55;11.40;99.90
48686;DHT22;34485;51.536;3.816;2023-02-19T12:11:34;11.30;99.90
48686;DHT22;34485;51.536;3.816;2023-02-19T12:25:50;10.60;99.90
48686;DHT22;34485;51.536;3.816;2023-02-19T12:31:32;10.70;99.90
48686;DHT22;34485;51.536;3.816;2023-02-19T12:42:38;10.70;99.90
48686;DHT22;34485;51.536;3.816;2023-02-19T12:45:17;10.50;99.90
48686;DHT22;34485;51.536;3.816;2023-02-19T12:47:53;10.40;99.90
48686;DHT22;34485;51.536;3.816;2023-02-19T12:50:24;10.40;99.90
48686;DHT22;34485;51.536;3.816;2023-02-19T12:52:57;10.40;99.90
48686;DHT22;34485;51.536;3.816;2023-02-19T12:55:33;10.60;99.90
48686;DHT22;34485;51.536;3.816;2023-02-19T12:58:02;10.70;99.90
48686;DHT22;34485;51.536;3.816;2023-02-19T13:00:36;10.70;99.90
48686;DHT22;34485;51.536;3.816;2023-02-19T13:03:22;10.70;99.90
48686;DHT22;34485;51.536;3.816;2023-02-19T13:11:37;11.00;99.90
48686;DHT22;34485;51.536;3.816;2023-02-19T13:13:58;10.80;99.90
48686;DHT22;34485;51.536;3.816;2023-02-19T13:16:25;10.80;99.90
48686;DHT22;34485;51.536;3.816;2023-02-19T13:18:59;10.70;99.90
48686;DHT22;34485;51.536;3.816;2023-02-19T13:21:29;10.80;99.90
48686;DHT22;34485;51.536;3.816;2023-02-19T13:24:26;10.90;99.90
48686;DHT22;34485;51.536;3.816;2023-02-19T13:32:58;11.10;99.90
48686;DHT22;34485;51.536;3.816;2023-02-19T13:35:57;11.00;99.90
48686;DHT22;34485;51.536;3.816;2023-02-19T13:38:51;10.90;99.90
48686;DHT22;34485;51.536;3.816;2023-02-19T13:41:25;10.80;99.90
48686;DHT22;34485;51.536;3.816;2023-02-19T13:44:01;10.70;99.90
48686;DHT22;34485;51.536;3.816;2023-02-19T13:46:39;10.70;99.90
48686;DHT22;34485;51.536;3.816;2023-02-19T13:49:39;10.80;99.90
48686;DHT22;34485;51.536;3.816;2023-02-19T13:58:34;10.50;99.90
48686;DHT22;34485;51.536;3.816;2023-02-19T14:01:08;10.50;99.90
48686;DHT22;34485;51.536;3.816;2023-02-19T14:04:13;10.40;99.90
48686;DHT22;34485;51.536;3.816;2023-02-19T14:06:25;10.30;99.90
48686;DHT22;34485;51.536;3.816;2023-02-19T14:08:54;10.30;99.90
48686;DHT22;34485;51.536;3.816;2023-02-19T14:14:28;10.00;99.90
48686;DHT22;34485;51.536;3.816;2023-02-19T14:25:38;9.60;99.90
48686;DHT22;34485;51.536;3.816;2023-02-19T14:28:30;9.60;99.90
48686;DHT22;34485;51.536;3.816;2023-02-19T14:34:02;9.80;99.90
48686;DHT22;34485;51.536;3.816;2023-02-19T14:39:16;9.70;99.90
48686;DHT22;34485;51.536;3.816;2023-02-19T14:41:45;9.70;99.90
48686;DHT22;34485;51.536;3.816;2023-02-19T14:44:24;9.60;99.90
48686;DHT22;34485;51.536;3.816;2023-02-19T14:47:05;9.80;99.90
48686;DHT22;34485;51.536;3.816;2023-02-19T14:49:53;9.80;99.90
48686;DHT22;34485;51.536;3.816;2023-02-19T14:54:56;10.00;99.90
48686;DHT22;34485;51.536;3.816;2023-02-19T14:57:27;10.00;99.90
48686;DHT22;34485;51.536;3.816;2023-02-19T14:59:58;9.90;99.90
48686;DHT22;34485;51.536;3.816;2023-02-19T15:02:28;9.90;99.90
48686;DHT22;34485;51.536;3.816;2023-02-19T15:04:56;9.90;99.90
48686;DHT22;34485;51.536;3.816;2023-02-19T15:07:30;9.90;99.90
48686;DHT22;34485;51.536;3.816;2023-02-19T15:09:59;9.90;99.90
48686;DHT22;34485;51.536;3.816;2023-02-19T15:12:31;9.80;99.90
48686;DHT22;34485;51.536;3.816;2023-02-19T15:15:02;9.60;99.90
48686;DHT22;34485;51.536;3.816;2023-02-19T15:17:31;9.60;99.90
48686;DHT22;34485;51.536;3.816;2023-02-19T15:19:59;9.50;99.90
48686;DHT22;34485;51.536;3.816;2023-02-19T15:22:28;9.60;99.90
48686;DHT22;34485;51.536;3.816;2023-02-19T15:24:59;9.70;99.90
48686;DHT22;34485;51.536;3.816;2023-02-19T15:27:26;9.70;99.90
48686;DHT22;34485;51.536;3.816;2023-02-19T15:29:52;9.90;99.90
48686;DHT22;34485;51.536;3.816;2023-02-19T15:32:22;9.90;99.90
48686;DHT22;34485;51.536;3.816;2023-02-19T15:35:00;10.00;99.90
48686;DHT22;34485;51.536;3.816;2023-02-19T15:37:30;9.80;99.90
48686;DHT22;34485;51.536;3.816;2023-02-19T15:39:59;9.80;99.90
48686;DHT22;34485;51.536;3.816;2023-02-19T15:42:30;9.70;99.90
48686;DHT22;34485;51.536;3.816;2023-02-19T15:45:03;9.60;99.90
48686;DHT22;34485;51.536;3.816;2023-02-19T15:47:40;9.60;99.90
48686;DHT22;34485;51.536;3.816;2023-02-19T15:50:28;9.60;99.90
48686;DHT22;34485;51.536;3.816;2023-02-19T15:58:08;9.50;99.90
48686;DHT22;34485;51.536;3.816;2023-02-19T16:00:53;9.40;99.90
48686;DHT22;34485;51.536;3.816;2023-02-19T16:03:21;9.40;99.90
48686;DHT22;34485;51.536;3.816;2023-02-19T16:06:07;9.30;99.90
48686;DHT22;34485;51.536;3.816;2023-02-19T16:08:40;9.20;99.90
48686;DHT22;34485;51.536;3.816;2023-02-19T16:11:25;9.10;99.90
48686;DHT22;34485;51.536;3.816;2023-02-19T16:14:23;9.10;99.90
48686;DHT22;34485;51.536;3.816;2023-02-19T16:16:53;9.00;99.90
48686;DHT22;34485;51.536;3.816;2023-02-19T16:19:24;8.90;99.90
48686;DHT22;34485;51.536;3.816;2023-02-19T16:21:51;8.80;99.90
48686;DHT22;34485;51.536;3.816;2023-02-19T16:24:30;8.80;99.90
48686;DHT22;34485;51.536;3.816;2023-02-19T16:26:57;8.70;99.90
48686;DHT22;34485;51.536;3.816;2023-02-19T16:29:28;8.70;99.90
48686;DHT22;34485;51.536;3.816;2023-02-19T16:32:00;8.60;99.90
48686;DHT22;34485;51.536;3.816;2023-02-19T16:37:29;8.50;99.90
48686;DHT22;34485;51.536;3.816;2023-02-19T16:45:16;8.20;99.90
48686;DHT22;34485;51.536;3.816;2023-02-19T16:47:43;8.20;99.90
48686;DHT22;34485;51.536;3.816;2023-02-19T16:50:14;8.20;99.90
48686;DHT22;34485;51.536;3.816;2023-02-19T16:52:58;8.30;99.90
48686;DHT22;34485;51.536;3.816;2023-02-19T16:55:24;8.30;99.90
48686;DHT22;34485;51.536;3.816;2023-02-19T16:57:55;8.30;99.90
48686;DHT22;34485;51.536;3.816;2023-02-19T17:00:28;8.30;99.90
48686;DHT22;34485;51.536;3.816;2023-02-19T17:03:01;8.30;99.90
48686;DHT22;34485;51.536;3.816;2023-02-19T17:05:35;8.40;99.90
48686;DHT22;34485;51.536;3.816;2023-02-19T17:10:44;8.40;99.90
48686;DHT22;34485;51.536;3.816;2023-02-19T17:13:10;8.40;99.90
48686;DHT22;34485;51.536;3.816;2023-02-19T17:15:37;8.40;99.90
48686;DHT22;34485;51.536;3.816;2023-02-19T17:18:03;8.40;99.90
48686;DHT22;34485;51.536;3.816;2023-02-19T17:20:29;8.40;99.90
48686;DHT22;34485;51.536;3.816;2023-02-19T17:22:56;8.30;99.90
48686;DHT22;34485;51.536;3.816;2023-02-19T17:25:22;8.20;99.90
48686;DHT22;34485;51.536;3.816;2023-02-19T17:27:48;8.10;99.90
48686;DHT22;34485;51.536;3.816;2023-02-19T17:30:26;8.00;99.90
48686;DHT22;34485;51.536;3.816;2023-02-19T17:32:53;7.90;99.90
48686;DHT22;34485;51.536;3.816;2023-02-19T17:35:19;7.80;99.90
48686;DHT22;34485;51.536;3.816;2023-02-19T17:37:45;7.70;99.90
48686;DHT22;34485;51.536;3.816;2023-02-19T17:40:23;7.50;99.90
48686;DHT22;34485;51.536;3.816;2023-02-19T17:42:49;7.50;99.90
48686;DHT22;34485;51.536;3.816;2023-02-19T17:45:14;7.40;99.90
48686;DHT22;34485;51.536;3.816;2023-02-19T17:47:40;7.30;99.90
48686;DHT22;34485;51.536;3.816;2023-02-19T17:50:06;7.30;99.90
48686;DHT22;34485;51.536;3.816;2023-02-19T17:52:32;7.20;99.90
48686;DHT22;34485;51.536;3.816;2023-02-19T17:54:58;7.10;99.90
48686;DHT22;34485;51.536;3.816;2023-02-19T17:57:23;7.00;99.90
48686;DHT22;34485;51.536;3.816;2023-02-19T17:59:50;7.10;99.90
48686;DHT22;34485;51.536;3.816;2023-02-19T18:02:16;7.00;99.90
48686;DHT22;34485;51.536;3.816;2023-02-19T18:04:41;7.00;99.90
48686;DHT22;34485;51.536;3.816;2023-02-19T18:07:07;7.00;99.90
48686;DHT22;34485;51.536;3.816;2023-02-19T18:09:32;6.90;99.90
48686;DHT22;34485;51.536;3.816;2023-02-19T18:11:58;6.90;99.90
48686;DHT22;34485;51.536;3.816;2023-02-19T18:14:23;6.90;99.90
48686;DHT22;34485;51.536;3.816;2023-02-19T18:16:49;6.80;99.90
48686;DHT22;34485;51.536;3.816;2023-02-19T18:19:15;6.80;99.90
48686;DHT22;34485;51.536;3.816;2023-02-19T18:21:40;6.90;99.90
48686;DHT22;34485;51.536;3.816;2023-02-19T18:24:06;6.80;99.90
48686;DHT22;34485;51.536;3.816;2023-02-19T18:26:32;6.80;99.90
48686;DHT22;34485;51.536;3.816;2023-02-19T18:28:58;6.80;99.90